createdAt,value
2023-04-14T00:00:31.000Z,89.95
2023-04-14T00:01:30.000Z,90.17
2023-04-14T00:02:33.000Z,90.44
2023-04-14T00:03:30.000Z,89.99
2023-04-14T00:04:30.000Z,89.84
2023-04-14T00:05:31.000Z,89.57
2023-04-14T00:06:31.000Z,89.66
2023-04-14T00:07:30.000Z,89.33
2023-04-14T00:08:31.000Z,90.38
2023-04-14T00:09:31.000Z,90.42
2023-04-14T00:10:31.000Z,90.39
2023-04-14T00:11:31.000Z,89.89
2023-04-14T00:12:31.000Z,89.79
2023-04-14T00:13:31.000Z,89.71
2023-04-14T00:14:31.000Z,89.58
2023-04-14T00:15:31.000Z,89.86
2023-04-14T00:16:31.000Z,90.51
2023-04-14T00:17:31.000Z,90.46
2023-04-14T00:18:31.000Z,90.29
2023-04-14T00:19:31.000Z,89.80
2023-04-14T00:20:31.000Z,89.68
2023-04-14T00:21:31.000Z,89.71
2023-04-14T00:22:31.000Z,89.72
2023-04-14T00:23:31.000Z,90.10
2023-04-14T00:24:31.000Z,89.96
2023-04-14T00:25:31.000Z,89.80
2023-04-14T00:26:31.000Z,89.57
2023-04-14T00:27:31.000Z,89.29
2023-04-14T00:28:31.000Z,89.41
2023-04-14T00:29:31.000Z,89.38
2023-04-14T00:30:31.000Z,88.97
2023-04-14T00:31:31.000Z,88.83
2023-04-14T00:32:31.000Z,88.88
2023-04-14T00:33:31.000Z,88.91
2023-04-14T00:34:31.000Z,89.19
2023-04-14T00:35:31.000Z,89.49
2023-04-14T00:36:31.000Z,89.75
2023-04-14T00:37:31.000Z,89.41
2023-04-14T00:38:30.000Z,89.43
2023-04-14T00:39:31.000Z,89.46
2023-04-14T00:40:31.000Z,89.17
2023-04-14T00:41:33.000Z,89.16
2023-04-14T00:42:31.000Z,88.84
2023-04-14T00:43:31.000Z,88.92
2023-04-14T00:44:31.000Z,89.32
2023-04-14T00:45:40.000Z,89.37
2023-04-14T00:46:31.000Z,89.04
2023-04-14T00:47:31.000Z,88.62
2023-04-14T00:48:31.000Z,88.55
2023-04-14T00:49:31.000Z,88.95
2023-04-14T00:50:32.000Z,88.91
2023-04-14T00:51:32.000Z,88.66
2023-04-14T00:52:31.000Z,88.61
2023-04-14T00:53:31.000Z,88.56
2023-04-14T00:54:31.000Z,88.58
2023-04-14T00:55:32.000Z,88.18
2023-04-14T00:56:31.000Z,87.64
2023-04-14T00:57:31.000Z,87.80
2023-04-14T00:58:31.000Z,87.93
2023-04-14T00:59:31.000Z,88.01
2023-04-14T01:00:33.000Z,87.99
2023-04-14T01:01:35.000Z,87.90
2023-04-14T01:02:31.000Z,87.86
2023-04-14T01:03:31.000Z,87.87
2023-04-14T01:04:31.000Z,87.79
2023-04-14T01:05:32.000Z,87.35
2023-04-14T01:06:31.000Z,87.24
2023-04-14T01:07:31.000Z,87.27
2023-04-14T01:08:30.000Z,87.54
2023-04-14T01:09:30.000Z,87.32
2023-04-14T01:10:38.000Z,87.30
2023-04-14T01:11:43.000Z,87.44
2023-04-14T01:12:47.000Z,87.55
2023-04-14T01:13:52.000Z,87.58
2023-04-14T01:14:40.000Z,88.28
2023-04-14T01:15:41.000Z,88.54
2023-04-14T01:16:34.000Z,88.28
2023-04-14T01:17:37.000Z,88.08
2023-04-14T01:18:42.000Z,87.96
2023-04-14T01:20:00.000Z,87.88
2023-04-14T01:20:39.000Z,88.34
2023-04-14T01:21:36.000Z,88.40
2023-04-14T01:22:33.000Z,87.95
2023-04-14T01:23:37.000Z,88.15
2023-04-14T01:24:40.000Z,88.07
2023-04-14T01:25:53.000Z,87.90
2023-04-14T01:26:31.000Z,87.88
2023-04-14T01:27:41.000Z,87.91
2023-04-14T01:28:40.000Z,88.21
2023-04-14T01:30:03.000Z,88.25
2023-04-14T01:30:40.000Z,87.99
2023-04-14T01:31:39.000Z,87.97
2023-04-14T01:32:34.000Z,87.87
2023-04-14T01:33:34.000Z,88.00
2023-04-14T01:34:39.000Z,88.03
2023-04-14T01:35:40.000Z,88.44
2023-04-14T01:36:40.000Z,88.70
2023-04-14T01:37:34.000Z,88.32
2023-04-14T01:38:33.000Z,88.56
2023-04-14T01:39:36.000Z,88.39
2023-04-14T01:40:32.000Z,88.69
2023-04-14T01:41:32.000Z,88.26
2023-04-14T01:42:34.000Z,88.29
2023-04-14T01:43:33.000Z,88.32
2023-04-14T01:44:32.000Z,88.35
2023-04-14T01:45:37.000Z,88.14
2023-04-14T01:46:33.000Z,88.12
2023-04-14T01:47:31.000Z,88.09
2023-04-14T01:48:32.000Z,88.12
2023-04-14T01:49:34.000Z,88.11
2023-04-14T01:50:33.000Z,88.31
2023-04-14T01:51:32.000Z,88.22
2023-04-14T01:52:34.000Z,88.06
2023-04-14T01:53:32.000Z,88.34
2023-04-14T01:54:33.000Z,88.19
2023-04-14T01:55:32.000Z,88.00
2023-04-14T01:56:32.000Z,87.97
2023-04-14T01:57:37.000Z,88.25
2023-04-14T01:58:31.000Z,88.05
2023-04-14T01:59:33.000Z,88.10
2023-04-14T02:00:33.000Z,88.37
2023-04-14T02:01:33.000Z,88.07
2023-04-14T02:02:33.000Z,88.02
2023-04-14T02:03:31.000Z,88.21
2023-04-14T02:04:32.000Z,88.21
2023-04-14T02:05:35.000Z,88.06
2023-04-14T02:06:33.000Z,87.98
2023-04-14T02:07:32.000Z,87.96
2023-04-14T02:08:32.000Z,87.88
2023-04-14T02:09:32.000Z,87.86
2023-04-14T02:10:32.000Z,87.92
2023-04-14T02:11:32.000Z,88.36
2023-04-14T02:12:30.000Z,88.31
2023-04-14T02:13:32.000Z,87.97
2023-04-14T02:14:31.000Z,87.96
2023-04-14T02:15:32.000Z,88.02
2023-04-14T02:16:32.000Z,87.81
2023-04-14T02:17:32.000Z,87.82
2023-04-14T02:18:32.000Z,87.74
2023-04-14T02:19:32.000Z,87.71
2023-04-14T02:20:31.000Z,87.66
2023-04-14T02:21:33.000Z,87.74
2023-04-14T02:22:31.000Z,87.81
2023-04-14T02:23:30.000Z,88.65
2023-04-14T02:24:30.000Z,88.32
2023-04-14T02:25:32.000Z,88.30
2023-04-14T02:26:33.000Z,88.21
2023-04-14T02:27:40.000Z,88.22
2023-04-14T02:28:33.000Z,88.08
2023-04-14T02:29:33.000Z,88.30
2023-04-14T02:30:35.000Z,88.38
2023-04-14T02:31:33.000Z,88.27
2023-04-14T02:32:33.000Z,88.23
2023-04-14T02:33:33.000Z,88.45
2023-04-14T02:34:36.000Z,88.66
2023-04-14T02:35:38.000Z,88.92
2023-04-14T02:36:40.000Z,88.94
2023-04-14T02:37:35.000Z,88.99
2023-04-14T02:38:40.000Z,89.01
2023-04-14T02:39:40.000Z,88.81
2023-04-14T02:40:34.000Z,88.79
2023-04-14T02:41:32.000Z,88.39
2023-04-14T02:42:36.000Z,88.11
2023-04-14T02:43:35.000Z,87.99
2023-04-14T02:44:41.000Z,88.15
2023-04-14T02:45:34.000Z,88.14
2023-04-14T02:46:36.000Z,87.93
2023-04-14T02:47:33.000Z,87.91
2023-04-14T02:48:33.000Z,88.04
2023-04-14T02:49:35.000Z,87.77
2023-04-14T02:50:31.000Z,87.84
2023-04-14T02:51:34.000Z,87.73
2023-04-14T02:52:32.000Z,87.68
2023-04-14T02:53:32.000Z,87.65
2023-04-14T02:54:36.000Z,87.72
2023-04-14T02:55:32.000Z,87.78
2023-04-14T02:56:31.000Z,87.96
2023-04-14T02:57:32.000Z,87.90
2023-04-14T02:58:31.000Z,87.98
2023-04-14T02:59:32.000Z,87.97
2023-04-14T03:00:32.000Z,88.34
2023-04-14T03:01:33.000Z,88.25
2023-04-14T03:02:32.000Z,88.32
2023-04-14T03:03:32.000Z,88.60
2023-04-14T03:04:33.000Z,88.38
2023-04-14T03:05:31.000Z,88.02
2023-04-14T03:06:31.000Z,88.09
2023-04-14T03:07:32.000Z,88.02
2023-04-14T03:08:32.000Z,88.10
2023-04-14T03:09:34.000Z,88.09
2023-04-14T03:10:31.000Z,87.94
2023-04-14T03:11:32.000Z,87.82
2023-04-14T03:12:33.000Z,87.89
2023-04-14T03:13:32.000Z,87.71
2023-04-14T03:14:30.000Z,87.70
2023-04-14T03:15:32.000Z,87.65
2023-04-14T03:16:31.000Z,88.05
2023-04-14T03:17:31.000Z,88.20
2023-04-14T03:18:32.000Z,88.41
2023-04-14T03:19:31.000Z,88.52
2023-04-14T03:20:32.000Z,88.17
2023-04-14T03:21:32.000Z,88.13
2023-04-14T03:22:32.000Z,87.99
2023-04-14T03:23:31.000Z,87.84
2023-04-14T03:24:33.000Z,88.17
2023-04-14T03:25:33.000Z,88.44
2023-04-14T03:26:33.000Z,88.61
2023-04-14T03:27:32.000Z,88.60
2023-04-14T03:28:34.000Z,88.25
2023-04-14T03:29:38.000Z,88.20
2023-04-14T03:30:33.000Z,88.26
2023-04-14T03:31:34.000Z,88.29
2023-04-14T03:32:36.000Z,87.87
2023-04-14T03:33:31.000Z,88.23
2023-04-14T03:34:33.000Z,88.47
2023-04-14T03:35:32.000Z,88.37
2023-04-14T03:36:32.000Z,88.32
2023-04-14T03:37:36.000Z,88.32
2023-04-14T03:38:33.000Z,88.27
2023-04-14T03:39:33.000Z,88.29
2023-04-14T03:40:33.000Z,88.15
2023-04-14T03:41:34.000Z,87.76
2023-04-14T03:42:32.000Z,87.69
2023-04-14T03:43:32.000Z,87.72
2023-04-14T03:44:32.000Z,87.74
2023-04-14T03:45:30.000Z,88.20
2023-04-14T03:46:30.000Z,88.35
2023-04-14T03:47:30.000Z,88.05
2023-04-14T03:48:36.000Z,88.27
2023-04-14T03:49:35.000Z,88.40
2023-04-14T03:50:34.000Z,88.31
2023-04-14T03:51:31.000Z,88.20
2023-04-14T03:52:32.000Z,87.89
2023-04-14T03:53:33.000Z,88.05
2023-04-14T03:54:32.000Z,88.00
2023-04-14T03:55:33.000Z,87.20
2023-04-14T03:56:33.000Z,87.65
2023-04-14T03:57:31.000Z,88.09
2023-04-14T03:58:31.000Z,87.50
2023-04-14T04:00:03.000Z,87.74
2023-04-14T04:00:30.000Z,87.81
2023-04-14T04:01:31.000Z,87.39
2023-04-14T04:02:31.000Z,87.49
2023-04-14T04:03:32.000Z,87.59
2023-04-14T04:04:30.000Z,87.57
2023-04-14T04:05:31.000Z,87.50
2023-04-14T04:06:31.000Z,87.41
2023-04-14T04:07:31.000Z,87.22
2023-04-14T04:08:32.000Z,87.15
2023-04-14T04:09:32.000Z,87.37
2023-04-14T04:10:34.000Z,87.47
2023-04-14T04:11:32.000Z,87.43
2023-04-14T04:12:31.000Z,87.21
2023-04-14T04:13:32.000Z,87.08
2023-04-14T04:14:31.000Z,86.95
2023-04-14T04:15:31.000Z,86.92
2023-04-14T04:16:33.000Z,86.91
2023-04-14T04:17:31.000Z,87.22
2023-04-14T04:18:33.000Z,87.60
2023-04-14T04:19:32.000Z,87.27
2023-04-14T04:20:31.000Z,87.04
2023-04-14T04:21:33.000Z,87.20
2023-04-14T04:22:35.000Z,87.42
2023-04-14T04:23:32.000Z,87.34
2023-04-14T04:24:36.000Z,87.21
2023-04-14T04:25:34.000Z,87.48
2023-04-14T04:26:30.000Z,87.40
2023-04-14T04:27:30.000Z,87.30
2023-04-14T04:28:31.000Z,87.41
2023-04-14T04:29:30.000Z,87.46
2023-04-14T04:30:32.000Z,87.14
2023-04-14T04:31:32.000Z,87.37
2023-04-14T04:32:30.000Z,87.27
2023-04-14T04:33:30.000Z,87.32
2023-04-14T04:34:32.000Z,87.22
2023-04-14T04:35:33.000Z,87.30
2023-04-14T04:36:32.000Z,87.73
2023-04-14T04:37:31.000Z,87.94
2023-04-14T04:38:31.000Z,87.93
2023-04-14T04:39:30.000Z,87.98
2023-04-14T04:40:36.000Z,87.82
2023-04-14T04:41:30.000Z,87.84
2023-04-14T04:42:30.000Z,87.87
2023-04-14T04:43:30.000Z,87.98
2023-04-14T04:44:31.000Z,88.08
2023-04-14T04:45:40.000Z,87.76
2023-04-14T04:46:40.000Z,87.65
2023-04-14T04:47:30.000Z,87.45
2023-04-14T04:48:30.000Z,87.51
2023-04-14T04:49:30.000Z,87.55
2023-04-14T04:50:30.000Z,87.80
2023-04-14T04:51:30.000Z,88.24
2023-04-14T04:52:30.000Z,88.10
2023-04-14T04:53:30.000Z,88.27
2023-04-14T04:54:30.000Z,88.61
2023-04-14T04:55:30.000Z,88.54
2023-04-14T04:56:30.000Z,88.58
2023-04-14T04:57:30.000Z,88.52
2023-04-14T04:58:30.000Z,88.52
2023-04-14T04:59:31.000Z,88.49
2023-04-14T05:00:30.000Z,88.53
2023-04-14T05:01:30.000Z,88.33
2023-04-14T05:02:30.000Z,88.17
2023-04-14T05:03:30.000Z,88.16
2023-04-14T05:04:30.000Z,88.42
2023-04-14T05:05:33.000Z,88.18
2023-04-14T05:06:33.000Z,88.31
2023-04-14T05:07:30.000Z,87.89
2023-04-14T05:08:30.000Z,87.82
2023-04-14T05:09:30.000Z,87.61
2023-04-14T05:10:32.000Z,87.63
2023-04-14T05:11:31.000Z,87.65
2023-04-14T05:12:30.000Z,87.64
2023-04-14T05:13:32.000Z,87.50
2023-04-14T05:14:30.000Z,87.44
2023-04-14T05:15:30.000Z,87.37
2023-04-14T05:16:31.000Z,87.31
2023-04-14T05:17:30.000Z,87.22
2023-04-14T05:18:31.000Z,87.18
2023-04-14T05:19:30.000Z,87.18
2023-04-14T05:20:31.000Z,87.20
2023-04-14T05:21:30.000Z,87.43
2023-04-14T05:22:31.000Z,87.65
2023-04-14T05:23:35.000Z,87.87
2023-04-14T05:24:30.000Z,87.64
2023-04-14T05:25:30.000Z,87.44
2023-04-14T05:26:31.000Z,87.26
2023-04-14T05:27:30.000Z,87.44
2023-04-14T05:28:31.000Z,87.35
2023-04-14T05:29:30.000Z,87.42
2023-04-14T05:30:30.000Z,87.33
2023-04-14T05:31:31.000Z,87.22
2023-04-14T05:32:30.000Z,87.21
2023-04-14T05:33:30.000Z,87.15
2023-04-14T05:34:30.000Z,87.19
2023-04-14T05:35:30.000Z,87.14
2023-04-14T05:36:31.000Z,87.23
2023-04-14T05:37:30.000Z,87.58
2023-04-14T05:38:31.000Z,87.72
2023-04-14T05:39:30.000Z,89.64
2023-04-14T05:40:33.000Z,90.54
2023-04-14T05:41:30.000Z,90.84
2023-04-14T05:42:30.000Z,90.92
2023-04-14T05:43:29.000Z,90.52
2023-04-14T05:44:30.000Z,89.84
2023-04-14T05:45:30.000Z,89.28
2023-04-14T05:46:30.000Z,89.14
2023-04-14T05:47:30.000Z,89.00
2023-04-14T05:48:31.000Z,88.91
2023-04-14T05:49:34.000Z,88.81
2023-04-14T05:50:32.000Z,88.55
2023-04-14T05:51:30.000Z,88.32
2023-04-14T05:52:30.000Z,88.33
2023-04-14T05:53:30.000Z,88.58
2023-04-14T05:54:30.000Z,89.06
2023-04-14T05:55:30.000Z,89.01
2023-04-14T05:56:30.000Z,89.01
2023-04-14T05:57:33.000Z,88.84
2023-04-14T05:58:30.000Z,89.11
2023-04-14T05:59:30.000Z,89.29
2023-04-14T06:00:30.000Z,89.05
2023-04-14T06:01:30.000Z,89.23
2023-04-14T06:02:30.000Z,89.55
2023-04-14T06:03:30.000Z,89.51
2023-04-14T06:04:30.000Z,89.11
2023-04-14T06:05:31.000Z,89.38
2023-04-14T06:06:30.000Z,89.32
2023-04-14T06:07:30.000Z,89.55
2023-04-14T06:08:29.000Z,89.79
2023-04-14T06:09:30.000Z,89.62
2023-04-14T06:10:30.000Z,89.59
2023-04-14T06:11:30.000Z,89.70
2023-04-14T06:12:29.000Z,89.69
2023-04-14T06:13:30.000Z,89.71
2023-04-14T06:14:29.000Z,90.29
2023-04-14T06:15:30.000Z,90.63
2023-04-14T06:16:29.000Z,90.63
2023-04-14T06:17:31.000Z,90.49
2023-04-14T06:18:30.000Z,90.51
2023-04-14T06:19:29.000Z,90.24
2023-04-14T06:20:30.000Z,90.25
2023-04-14T06:21:29.000Z,90.53
2023-04-14T06:22:30.000Z,90.45
2023-04-14T06:23:30.000Z,90.23
2023-04-14T06:24:33.000Z,89.96
2023-04-14T06:25:29.000Z,89.76
2023-04-14T06:26:30.000Z,89.94
2023-04-14T06:27:30.000Z,89.98
2023-04-14T06:28:29.000Z,90.62
2023-04-14T06:29:29.000Z,90.71
2023-04-14T06:30:32.000Z,90.88
2023-04-14T06:31:29.000Z,91.95
2023-04-14T06:32:29.000Z,91.76
2023-04-14T06:33:29.000Z,91.56
2023-04-14T06:34:29.000Z,91.95
2023-04-14T06:35:30.000Z,91.33
2023-04-14T06:36:31.000Z,91.65
2023-04-14T06:37:30.000Z,92.04
2023-04-14T06:38:29.000Z,91.50
2023-04-14T06:39:30.000Z,91.00
2023-04-14T06:40:29.000Z,91.01
2023-04-14T06:41:29.000Z,91.24
2023-04-14T06:42:29.000Z,91.15
2023-04-14T06:43:29.000Z,91.66
2023-04-14T06:44:29.000Z,91.75
2023-04-14T06:45:30.000Z,91.60
2023-04-14T06:46:32.000Z,91.29
2023-04-14T06:47:30.000Z,91.00
2023-04-14T06:48:30.000Z,90.85
2023-04-14T06:49:29.000Z,90.82
2023-04-14T06:50:30.000Z,90.83
2023-04-14T06:51:31.000Z,90.73
2023-04-14T06:52:30.000Z,90.37
2023-04-14T06:53:29.000Z,90.71
2023-04-14T06:54:34.000Z,90.88
2023-04-14T06:55:30.000Z,90.91
2023-04-14T06:56:29.000Z,90.69
2023-04-14T06:57:30.000Z,90.43
2023-04-14T06:58:30.000Z,90.21
2023-04-14T06:59:29.000Z,90.36
2023-04-14T07:00:29.000Z,89.85
2023-04-14T07:01:30.000Z,89.86
2023-04-14T07:02:29.000Z,89.85
2023-04-14T07:03:30.000Z,89.71
2023-04-14T07:04:30.000Z,89.40
2023-04-14T07:05:30.000Z,89.27
2023-04-14T07:06:30.000Z,88.86
2023-04-14T07:07:34.000Z,88.76
2023-04-14T07:08:31.000Z,88.29
2023-04-14T07:09:30.000Z,88.16
2023-04-14T07:10:29.000Z,87.56
2023-04-14T07:11:30.000Z,87.88
2023-04-14T07:12:30.000Z,87.26
2023-04-14T07:13:30.000Z,86.95
2023-04-14T07:14:30.000Z,87.16
2023-04-14T07:15:29.000Z,88.12
2023-04-14T07:16:29.000Z,88.51
2023-04-14T07:17:29.000Z,88.25
2023-04-14T07:18:30.000Z,87.70
2023-04-14T07:19:30.000Z,88.36
2023-04-14T07:20:30.000Z,88.13
2023-04-14T07:21:30.000Z,87.93
2023-04-14T07:22:29.000Z,87.73
2023-04-14T07:23:31.000Z,88.15
2023-04-14T07:24:29.000Z,87.95
2023-04-14T07:25:33.000Z,87.68
2023-04-14T07:26:29.000Z,87.49
2023-04-14T07:27:30.000Z,87.65
2023-04-14T07:28:30.000Z,87.21
2023-04-14T07:29:32.000Z,87.42
2023-04-14T07:30:30.000Z,86.75
2023-04-14T07:31:32.000Z,87.64
2023-04-14T07:32:29.000Z,87.04
2023-04-14T07:33:30.000Z,86.96
2023-04-14T07:34:31.000Z,86.92
2023-04-14T07:35:29.000Z,87.78
2023-04-14T07:36:30.000Z,86.12
2023-04-14T07:37:29.000Z,85.83
2023-04-14T07:38:30.000Z,85.96
2023-04-14T07:39:30.000Z,84.70
2023-04-14T07:40:29.000Z,85.02
2023-04-14T07:41:29.000Z,85.93
2023-04-14T07:42:30.000Z,85.29
2023-04-14T07:43:35.000Z,85.92
2023-04-14T07:44:30.000Z,85.12
2023-04-14T07:45:29.000Z,84.96
2023-04-14T07:46:30.000Z,85.31
2023-04-14T07:47:29.000Z,85.74
2023-04-14T07:48:30.000Z,85.95
2023-04-14T07:49:30.000Z,82.90
2023-04-14T07:50:30.000Z,83.88
2023-04-14T07:51:29.000Z,84.09
2023-04-14T07:52:30.000Z,83.73
2023-04-14T07:53:30.000Z,83.80
2023-04-14T07:54:30.000Z,83.15
2023-04-14T07:55:29.000Z,82.64
2023-04-14T07:56:29.000Z,82.94
2023-04-14T07:57:32.000Z,82.25
2023-04-14T07:58:29.000Z,82.93
2023-04-14T07:59:30.000Z,82.80
2023-04-14T08:00:29.000Z,82.10
2023-04-14T08:01:29.000Z,81.24
2023-04-14T08:02:29.000Z,81.19
2023-04-14T08:03:29.000Z,80.87
2023-04-14T08:04:29.000Z,80.73
2023-04-14T08:05:29.000Z,80.98
2023-04-14T08:06:29.000Z,80.49
2023-04-14T08:07:30.000Z,80.87
2023-04-14T08:08:31.000Z,78.60
2023-04-14T08:09:29.000Z,78.35
2023-04-14T08:10:30.000Z,80.41
2023-04-14T08:11:29.000Z,80.28
2023-04-14T08:12:29.000Z,80.80
2023-04-14T08:13:29.000Z,80.57
2023-04-14T08:14:29.000Z,80.43
2023-04-14T08:15:30.000Z,80.49
2023-04-14T08:16:31.000Z,80.72
2023-04-14T08:17:30.000Z,80.88
2023-04-14T08:18:30.000Z,80.27
2023-04-14T08:19:32.000Z,79.28
2023-04-14T08:20:30.000Z,78.40
2023-04-14T08:21:30.000Z,78.76
2023-04-14T08:22:30.000Z,79.20
2023-04-14T08:23:30.000Z,79.48
2023-04-14T08:24:30.000Z,80.06
2023-04-14T08:25:30.000Z,79.79
2023-04-14T08:26:30.000Z,79.83
2023-04-14T08:27:30.000Z,78.06
2023-04-14T08:28:30.000Z,76.88
2023-04-14T08:29:30.000Z,76.12
2023-04-14T08:30:30.000Z,75.29
2023-04-14T08:31:31.000Z,74.32
2023-04-14T08:32:30.000Z,73.85
2023-04-14T08:33:30.000Z,74.98
2023-04-14T08:34:30.000Z,74.35
2023-04-14T08:35:30.000Z,74.76
2023-04-14T08:36:30.000Z,74.48
2023-04-14T08:37:30.000Z,74.23
2023-04-14T08:38:30.000Z,75.30
2023-04-14T08:39:30.000Z,75.00
2023-04-14T08:40:39.000Z,75.41
2023-04-14T08:41:33.000Z,76.47
2023-04-14T08:42:30.000Z,76.69
2023-04-14T08:43:30.000Z,75.55
2023-04-14T08:44:30.000Z,74.68
2023-04-14T08:45:31.000Z,74.71
2023-04-14T08:46:31.000Z,74.36
2023-04-14T08:47:34.000Z,74.76
2023-04-14T08:48:34.000Z,74.71
2023-04-14T08:49:40.000Z,74.64
2023-04-14T08:50:36.000Z,73.58
2023-04-14T08:51:37.000Z,74.60
2023-04-14T08:52:33.000Z,75.10
2023-04-14T08:53:31.000Z,74.16
2023-04-14T08:54:31.000Z,72.66
2023-04-14T08:55:31.000Z,72.75
2023-04-14T08:56:36.000Z,72.28
2023-04-14T08:57:30.000Z,72.86
2023-04-14T08:58:30.000Z,73.25
2023-04-14T08:59:30.000Z,72.31
2023-04-14T09:00:30.000Z,73.12
2023-04-14T09:01:32.000Z,73.81
2023-04-14T09:02:34.000Z,74.28
2023-04-14T09:03:30.000Z,72.72
2023-04-14T09:04:31.000Z,70.68
2023-04-14T09:05:30.000Z,71.67
2023-04-14T09:06:33.000Z,71.99
2023-04-14T09:07:30.000Z,71.14
2023-04-14T09:08:34.000Z,72.46
2023-04-14T09:09:30.000Z,72.87
2023-04-14T09:10:30.000Z,73.13
2023-04-14T09:11:30.000Z,72.22
2023-04-14T09:12:31.000Z,71.31
2023-04-14T09:13:30.000Z,71.44
2023-04-14T09:14:32.000Z,70.33
2023-04-14T09:15:30.000Z,70.51
2023-04-14T09:16:32.000Z,67.81
2023-04-14T09:17:30.000Z,69.49
2023-04-14T09:18:30.000Z,69.98
2023-04-14T09:19:31.000Z,69.49
2023-04-14T09:20:30.000Z,69.07
2023-04-14T09:21:30.000Z,67.97
2023-04-14T09:22:31.000Z,68.38
2023-04-14T09:23:30.000Z,67.99
2023-04-14T09:24:33.000Z,68.29
2023-04-14T09:25:30.000Z,68.19
2023-04-14T09:26:30.000Z,66.55
2023-04-14T09:27:30.000Z,66.84
2023-04-14T09:28:30.000Z,66.61
2023-04-14T09:29:31.000Z,67.37
2023-04-14T09:30:30.000Z,67.04
2023-04-14T09:31:30.000Z,68.40
2023-04-14T09:32:31.000Z,68.22
2023-04-14T09:33:30.000Z,68.79
2023-04-14T09:34:31.000Z,67.08
2023-04-14T09:35:40.000Z,68.12
2023-04-14T09:36:30.000Z,68.33
2023-04-14T09:37:41.000Z,68.13
2023-04-14T09:38:35.000Z,67.14
2023-04-14T09:39:32.000Z,65.99
2023-04-14T09:40:30.000Z,67.01
2023-04-14T09:41:31.000Z,66.67
2023-04-14T09:42:36.000Z,67.05
2023-04-14T09:43:31.000Z,68.01
2023-04-14T09:44:30.000Z,66.66
2023-04-14T09:45:40.000Z,65.75
2023-04-14T09:46:31.000Z,65.56
2023-04-14T09:47:30.000Z,66.02
2023-04-14T09:48:29.000Z,66.23
2023-04-14T09:49:30.000Z,65.89
2023-04-14T09:50:30.000Z,65.11
2023-04-14T09:51:31.000Z,66.14
2023-04-14T09:52:36.000Z,65.45
2023-04-14T09:53:31.000Z,65.46
2023-04-14T09:54:29.000Z,65.83
2023-04-14T09:55:29.000Z,64.90
2023-04-14T09:56:29.000Z,64.95
2023-04-14T09:57:29.000Z,62.38
2023-04-14T09:58:38.000Z,62.92
2023-04-14T09:59:32.000Z,62.39
2023-04-14T10:00:29.000Z,61.37
2023-04-14T10:01:31.000Z,61.82
2023-04-14T10:02:49.000Z,60.96
2023-04-14T10:03:46.000Z,62.05
2023-04-14T10:04:30.000Z,61.60
2023-04-14T10:05:30.000Z,61.69
2023-04-14T10:06:30.000Z,61.01
2023-04-14T10:07:30.000Z,61.37
2023-04-14T10:08:34.000Z,60.22
2023-04-14T10:09:34.000Z,60.68
2023-04-14T10:10:29.000Z,61.17
2023-04-14T10:11:30.000Z,61.33
2023-04-14T10:12:29.000Z,60.11
2023-04-14T10:13:29.000Z,60.05
2023-04-14T10:14:29.000Z,58.80
2023-04-14T10:15:30.000Z,58.96
2023-04-14T10:16:30.000Z,60.86
2023-04-14T10:17:29.000Z,60.56
2023-04-14T10:18:29.000Z,58.89
2023-04-14T10:19:29.000Z,59.61
2023-04-14T10:20:30.000Z,59.83
2023-04-14T10:21:30.000Z,58.99
2023-04-14T10:22:30.000Z,58.40
2023-04-14T10:23:30.000Z,57.13
2023-04-14T10:24:30.000Z,56.41
2023-04-14T10:25:30.000Z,57.47
2023-04-14T10:26:29.000Z,58.46
2023-04-14T10:27:31.000Z,58.64
2023-04-14T10:28:31.000Z,59.06
2023-04-14T10:29:30.000Z,58.75
2023-04-14T10:30:30.000Z,59.23
2023-04-14T10:31:38.000Z,59.00
2023-04-14T10:32:32.000Z,59.05
2023-04-14T10:33:29.000Z,55.60
2023-04-14T10:34:31.000Z,54.05
2023-04-14T10:35:37.000Z,54.46
2023-04-14T10:36:30.000Z,56.63
2023-04-14T10:37:31.000Z,57.45
2023-04-14T10:38:35.000Z,58.01
2023-04-14T10:39:30.000Z,57.98
2023-04-14T10:40:46.000Z,57.81
2023-04-14T10:41:39.000Z,57.39
2023-04-14T10:42:41.000Z,57.25
2023-04-14T10:43:29.000Z,56.79
2023-04-14T10:44:34.000Z,55.74
2023-04-14T10:45:29.000Z,57.01
2023-04-14T10:46:45.000Z,57.08
2023-04-14T10:47:30.000Z,57.03
2023-04-14T10:48:36.000Z,56.77
2023-04-14T10:49:32.000Z,57.11
2023-04-14T10:50:45.000Z,56.12
2023-04-14T10:51:33.000Z,54.16
2023-04-14T10:52:31.000Z,54.62
2023-04-14T10:53:47.000Z,55.00
2023-04-14T10:54:40.000Z,56.15
2023-04-14T10:55:44.000Z,54.97
2023-04-14T10:56:30.000Z,56.52
2023-04-14T10:57:35.000Z,57.43
2023-04-14T10:58:33.000Z,56.41
2023-04-14T10:59:30.000Z,57.22
2023-04-14T11:00:36.000Z,57.06
2023-04-14T11:01:33.000Z,57.06
2023-04-14T11:02:32.000Z,56.86
2023-04-14T11:03:42.000Z,57.25
2023-04-14T11:04:30.000Z,56.76
2023-04-14T11:05:34.000Z,56.42
2023-04-14T11:06:40.000Z,56.81
2023-04-14T11:07:36.000Z,56.56
2023-04-14T11:08:34.000Z,56.54
2023-04-14T11:09:34.000Z,56.17
2023-04-14T11:10:30.000Z,56.55
2023-04-14T11:11:30.000Z,56.39
2023-04-14T11:12:30.000Z,55.84
2023-04-14T11:13:32.000Z,56.25
2023-04-14T11:14:32.000Z,55.93
2023-04-14T11:15:40.000Z,55.20
2023-04-14T11:16:30.000Z,54.01
2023-04-14T11:17:36.000Z,53.56
2023-04-14T11:18:35.000Z,54.66
2023-04-14T11:19:31.000Z,54.77
2023-04-14T11:20:30.000Z,55.37
2023-04-14T11:21:30.000Z,52.95
2023-04-14T11:22:35.000Z,53.79
2023-04-14T11:23:31.000Z,53.78
2023-04-14T11:24:30.000Z,53.08
2023-04-14T11:25:31.000Z,52.09
2023-04-14T11:26:30.000Z,53.02
2023-04-14T11:27:30.000Z,51.42
2023-04-14T11:28:33.000Z,52.05
2023-04-14T11:29:30.000Z,52.56
2023-04-14T11:30:30.000Z,52.32
2023-04-14T11:31:30.000Z,52.35
2023-04-14T11:32:43.000Z,52.65
2023-04-14T11:33:36.000Z,52.55
2023-04-14T11:34:30.000Z,52.93
2023-04-14T11:35:30.000Z,49.87
2023-04-14T11:36:31.000Z,50.10
2023-04-14T11:37:32.000Z,50.52
2023-04-14T11:38:31.000Z,50.80
2023-04-14T11:39:30.000Z,50.88
2023-04-14T11:40:30.000Z,49.07
2023-04-14T11:41:30.000Z,48.73
2023-04-14T11:42:30.000Z,49.49
2023-04-14T11:43:30.000Z,48.43
2023-04-14T11:44:30.000Z,48.77
2023-04-14T11:45:30.000Z,49.10
2023-04-14T11:46:30.000Z,49.48
2023-04-14T11:47:30.000Z,49.19
2023-04-14T11:48:30.000Z,49.04
2023-04-14T11:49:34.000Z,48.79
2023-04-14T11:50:32.000Z,48.81
2023-04-14T11:51:32.000Z,49.02
2023-04-14T11:52:32.000Z,49.42
2023-04-14T11:53:30.000Z,49.59
2023-04-14T11:54:34.000Z,48.59
2023-04-14T11:55:30.000Z,46.93
2023-04-14T11:56:30.000Z,47.04
2023-04-14T11:57:30.000Z,46.61
2023-04-14T11:58:30.000Z,47.90
2023-04-14T11:59:37.000Z,46.61
2023-04-14T12:00:30.000Z,46.86
2023-04-14T12:01:30.000Z,46.52
2023-04-14T12:02:30.000Z,45.96
2023-04-14T12:03:31.000Z,46.74
2023-04-14T12:04:30.000Z,45.96
2023-04-14T12:05:30.000Z,46.17
2023-04-14T12:06:34.000Z,46.11
2023-04-14T12:07:30.000Z,45.05
2023-04-14T12:08:31.000Z,44.57
2023-04-14T12:09:30.000Z,44.55
2023-04-14T12:10:30.000Z,44.07
2023-04-14T12:11:30.000Z,42.60
2023-04-14T12:12:31.000Z,42.40
2023-04-14T12:13:30.000Z,43.11
2023-04-14T12:14:30.000Z,42.75
2023-04-14T12:15:31.000Z,43.28
2023-04-14T12:16:30.000Z,43.39
2023-04-14T12:17:30.000Z,44.27
2023-04-14T12:18:30.000Z,44.95
2023-04-14T12:19:30.000Z,44.23
2023-04-14T12:20:41.000Z,44.96
2023-04-14T12:21:29.000Z,44.50
2023-04-14T12:22:29.000Z,44.98
2023-04-14T12:23:34.000Z,45.18
2023-04-14T12:24:34.000Z,44.10
2023-04-14T12:25:33.000Z,44.21
2023-04-14T12:26:30.000Z,43.43
2023-04-14T12:27:30.000Z,43.70
2023-04-14T12:28:29.000Z,43.85
2023-04-14T12:29:36.000Z,44.85
2023-04-14T12:30:30.000Z,42.51
2023-04-14T12:31:30.000Z,42.71
2023-04-14T12:32:38.000Z,44.30
2023-04-14T12:33:30.000Z,44.78
2023-04-14T12:34:30.000Z,45.51
2023-04-14T12:35:33.000Z,44.77
2023-04-14T12:36:30.000Z,44.27
2023-04-14T12:37:31.000Z,44.45
2023-04-14T12:38:30.000Z,44.85
2023-04-14T12:39:29.000Z,44.58
2023-04-14T12:40:36.000Z,45.51
2023-04-14T12:41:29.000Z,45.77
2023-04-14T12:42:46.000Z,42.25
2023-04-14T12:43:34.000Z,43.68
2023-04-14T12:44:30.000Z,43.41
2023-04-14T12:45:42.000Z,41.53
2023-04-14T12:46:31.000Z,43.52
2023-04-14T12:47:32.000Z,44.84
2023-04-14T12:48:39.000Z,44.52
2023-04-14T12:49:32.000Z,44.34
2023-04-14T12:50:31.000Z,42.46
2023-04-14T12:51:37.000Z,41.97
2023-04-14T12:52:38.000Z,41.96